sensor_id;sensor_type;location;lat;lon;timestamp;P1;durP1;ratioP1;P2;durP2;ratioP2
59105;SDS011;44891;50.204;8.132;2022-10-16T00:03:54;2.83;;;2.10;;
59105;SDS011;44891;50.204;8.132;2022-10-16T00:07:56;4.40;;;2.35;;
59105;SDS011;44891;50.204;8.132;2022-10-16T00:12:00;3.20;;;2.00;;
59105;SDS011;44891;50.204;8.132;2022-10-16T00:16:04;2.22;;;2.00;;
59105;SDS011;44891;50.204;8.132;2022-10-16T00:20:07;3.97;;;1.90;;
59105;SDS011;44891;50.204;8.132;2022-10-16T00:24:10;3.05;;;2.03;;
59105;SDS011;44891;50.204;8.132;2022-10-16T00:28:14;2.63;;;2.20;;
59105;SDS011;44891;50.204;8.132;2022-10-16T00:32:16;2.38;;;2.03;;
59105;SDS011;44891;50.204;8.132;2022-10-16T00:36:18;5.40;;;2.10;;
59105;SDS011;44891;50.204;8.132;2022-10-16T00:40:22;2.10;;;1.90;;
59105;SDS011;44891;50.204;8.132;2022-10-16T00:44:45;4.32;;;2.35;;
59105;SDS011;44891;50.204;8.132;2022-10-16T00:48:51;2.65;;;2.30;;
59105;SDS011;44891;50.204;8.132;2022-10-16T00:52:57;3.67;;;2.20;;
59105;SDS011;44891;50.204;8.132;2022-10-16T00:57:02;2.65;;;2.38;;
59105;SDS011;44891;50.204;8.132;2022-10-16T01:01:08;3.67;;;2.40;;
59105;SDS011;44891;50.204;8.132;2022-10-16T01:05:11;3.25;;;2.45;;
59105;SDS011;44891;50.204;8.132;2022-10-16T01:09:14;6.25;;;2.90;;
59105;SDS011;44891;50.204;8.132;2022-10-16T01:13:21;4.93;;;2.25;;
59105;SDS011;44891;50.204;8.132;2022-10-16T01:17:31;3.03;;;2.00;;
59105;SDS011;44891;50.204;8.132;2022-10-16T01:21:38;5.10;;;2.78;;
59105;SDS011;44891;50.204;8.132;2022-10-16T01:25:49;4.95;;;2.60;;
59105;SDS011;44891;50.204;8.132;2022-10-16T01:30:07;4.67;;;2.80;;
59105;SDS011;44891;50.204;8.132;2022-10-16T01:34:15;3.40;;;2.35;;
59105;SDS011;44891;50.204;8.132;2022-10-16T01:38:21;2.90;;;2.15;;
59105;SDS011;44891;50.204;8.132;2022-10-16T01:42:30;5.55;;;2.47;;
59105;SDS011;44891;50.204;8.132;2022-10-16T01:46:39;2.17;;;2.00;;
59105;SDS011;44891;50.204;8.132;2022-10-16T01:50:44;4.22;;;1.95;;
59105;SDS011;44891;50.204;8.132;2022-10-16T01:54:54;2.00;;;1.80;;
59105;SDS011;44891;50.204;8.132;2022-10-16T01:58:59;2.40;;;1.70;;
59105;SDS011;44891;50.204;8.132;2022-10-16T02:03:06;3.25;;;2.00;;
59105;SDS011;44891;50.204;8.132;2022-10-16T02:07:12;2.03;;;1.50;;
59105;SDS011;44891;50.204;8.132;2022-10-16T02:11:15;3.55;;;1.67;;
59105;SDS011;44891;50.204;8.132;2022-10-16T02:15:17;2.70;;;1.77;;
59105;SDS011;44891;50.204;8.132;2022-10-16T02:19:21;2.72;;;1.63;;
59105;SDS011;44891;50.204;8.132;2022-10-16T02:23:24;1.70;;;1.60;;
59105;SDS011;44891;50.204;8.132;2022-10-16T02:27:38;3.72;;;1.90;;
59105;SDS011;44891;50.204;8.132;2022-10-16T02:31:46;1.98;;;1.80;;
59105;SDS011;44891;50.204;8.132;2022-10-16T02:35:54;2.25;;;1.75;;
59105;SDS011;44891;50.204;8.132;2022-10-16T02:39:57;2.30;;;1.65;;
59105;SDS011;44891;50.204;8.132;2022-10-16T02:44:00;2.15;;;2.00;;
59105;SDS011;44891;50.204;8.132;2022-10-16T02:48:02;2.53;;;1.90;;
59105;SDS011;44891;50.204;8.132;2022-10-16T02:52:05;3.15;;;2.20;;
59105;SDS011;44891;50.204;8.132;2022-10-16T02:56:08;2.58;;;2.30;;
59105;SDS011;44891;50.204;8.132;2022-10-16T03:00:11;3.60;;;2.00;;
59105;SDS011;44891;50.204;8.132;2022-10-16T03:04:15;3.20;;;2.13;;
59105;SDS011;44891;50.204;8.132;2022-10-16T03:08:18;1.60;;;1.50;;
59105;SDS011;44891;50.204;8.132;2022-10-16T03:12:24;1.98;;;1.42;;
59105;SDS011;44891;50.204;8.132;2022-10-16T03:16:26;1.55;;;1.33;;
59105;SDS011;44891;50.204;8.132;2022-10-16T03:20:28;3.00;;;1.40;;
59105;SDS011;44891;50.204;8.132;2022-10-16T03:24:31;1.95;;;1.35;;
59105;SDS011;44891;50.204;8.132;2022-10-16T03:28:33;1.30;;;1.20;;
59105;SDS011;44891;50.204;8.132;2022-10-16T03:32:35;1.73;;;1.23;;
59105;SDS011;44891;50.204;8.132;2022-10-16T03:36:38;1.48;;;1.30;;
59105;SDS011;44891;50.204;8.132;2022-10-16T03:40:41;1.70;;;1.60;;
59105;SDS011;44891;50.204;8.132;2022-10-16T03:44:43;1.83;;;1.60;;
59105;SDS011;44891;50.204;8.132;2022-10-16T03:48:45;5.45;;;2.03;;
59105;SDS011;44891;50.204;8.132;2022-10-16T03:52:47;5.07;;;1.90;;
59105;SDS011;44891;50.204;8.132;2022-10-16T03:56:51;2.15;;;1.98;;
59105;SDS011;44891;50.204;8.132;2022-10-16T04:00:53;3.28;;;2.40;;
59105;SDS011;44891;50.204;8.132;2022-10-16T04:04:55;3.33;;;2.40;;
59105;SDS011;44891;50.204;8.132;2022-10-16T04:08:57;3.72;;;2.35;;
59105;SDS011;44891;50.204;8.132;2022-10-16T04:13:00;3.08;;;2.42;;
59105;SDS011;44891;50.204;8.132;2022-10-16T04:17:03;2.70;;;2.28;;
59105;SDS011;44891;50.204;8.132;2022-10-16T04:21:05;2.50;;;1.80;;
59105;SDS011;44891;50.204;8.132;2022-10-16T04:25:08;1.95;;;1.58;;
59105;SDS011;44891;50.204;8.132;2022-10-16T04:29:13;2.83;;;1.60;;
59105;SDS011;44891;50.204;8.132;2022-10-16T04:33:15;3.22;;;1.70;;
59105;SDS011;44891;50.204;8.132;2022-10-16T04:37:17;1.95;;;1.70;;
59105;SDS011;44891;50.204;8.132;2022-10-16T04:41:19;2.95;;;2.10;;
59105;SDS011;44891;50.204;8.132;2022-10-16T04:45:23;2.85;;;2.08;;
59105;SDS011;44891;50.204;8.132;2022-10-16T04:49:25;3.45;;;2.00;;
59105;SDS011;44891;50.204;8.132;2022-10-16T04:53:27;5.18;;;2.00;;
59105;SDS011;44891;50.204;8.132;2022-10-16T04:57:29;1.98;;;1.40;;
59105;SDS011;44891;50.204;8.132;2022-10-16T05:01:33;3.38;;;1.58;;
59105;SDS011;44891;50.204;8.132;2022-10-16T05:05:35;1.75;;;1.33;;
59105;SDS011;44891;50.204;8.132;2022-10-16T05:09:38;1.70;;;1.60;;
59105;SDS011;44891;50.204;8.132;2022-10-16T05:13:40;2.13;;;1.80;;
59105;SDS011;44891;50.204;8.132;2022-10-16T05:17:43;7.20;;;2.40;;
59105;SDS011;44891;50.204;8.132;2022-10-16T05:21:46;2.58;;;2.10;;
59105;SDS011;44891;50.204;8.132;2022-10-16T05:25:51;2.67;;;2.10;;
59105;SDS011;44891;50.204;8.132;2022-10-16T05:29:55;2.40;;;1.95;;
59105;SDS011;44891;50.204;8.132;2022-10-16T05:33:59;2.03;;;1.60;;
59105;SDS011;44891;50.204;8.132;2022-10-16T05:38:01;4.60;;;1.95;;
59105;SDS011;44891;50.204;8.132;2022-10-16T05:42:04;3.53;;;2.40;;
59105;SDS011;44891;50.204;8.132;2022-10-16T05:46:06;7.32;;;5.13;;
59105;SDS011;44891;50.204;8.132;2022-10-16T05:50:10;4.10;;;3.70;;
59105;SDS011;44891;50.204;8.132;2022-10-16T05:54:12;5.57;;;3.50;;
59105;SDS011;44891;50.204;8.132;2022-10-16T05:58:14;6.28;;;5.45;;
59105;SDS011;44891;50.204;8.132;2022-10-16T06:02:16;5.75;;;3.85;;
59105;SDS011;44891;50.204;8.132;2022-10-16T06:06:20;4.53;;;3.38;;
59105;SDS011;44891;50.204;8.132;2022-10-16T06:10:24;5.68;;;3.75;;
59105;SDS011;44891;50.204;8.132;2022-10-16T06:14:26;3.95;;;3.55;;
59105;SDS011;44891;50.204;8.132;2022-10-16T06:18:29;4.13;;;3.38;;
59105;SDS011;44891;50.204;8.132;2022-10-16T06:22:33;3.92;;;3.58;;
59105;SDS011;44891;50.204;8.132;2022-10-16T06:26:35;3.92;;;3.20;;
59105;SDS011;44891;50.204;8.132;2022-10-16T06:30:37;5.53;;;4.00;;
59105;SDS011;44891;50.204;8.132;2022-10-16T06:34:39;4.78;;;3.30;;
59105;SDS011;44891;50.204;8.132;2022-10-16T06:38:43;3.33;;;3.00;;
59105;SDS011;44891;50.204;8.132;2022-10-16T06:42:45;3.40;;;3.10;;
59105;SDS011;44891;50.204;8.132;2022-10-16T06:46:48;4.60;;;4.20;;
59105;SDS011;44891;50.204;8.132;2022-10-16T06:50:56;7.70;;;6.35;;
59105;SDS011;44891;50.204;8.132;2022-10-16T06:55:01;81.93;;;36.35;;
59105;SDS011;44891;50.204;8.132;2022-10-16T06:59:04;57.85;;;42.38;;
59105;SDS011;44891;50.204;8.132;2022-10-16T07:03:06;10.75;;;8.40;;
59105;SDS011;44891;50.204;8.132;2022-10-16T07:07:08;11.65;;;6.95;;
59105;SDS011;44891;50.204;8.132;2022-10-16T07:11:12;14.50;;;9.10;;
59105;SDS011;44891;50.204;8.132;2022-10-16T07:15:15;11.38;;;7.65;;
59105;SDS011;44891;50.204;8.132;2022-10-16T07:19:17;11.43;;;7.15;;
59105;SDS011;44891;50.204;8.132;2022-10-16T07:23:20;8.50;;;6.00;;
59105;SDS011;44891;50.204;8.132;2022-10-16T07:27:23;4.35;;;3.92;;
59105;SDS011;44891;50.204;8.132;2022-10-16T07:31:26;6.10;;;4.95;;
59105;SDS011;44891;50.204;8.132;2022-10-16T07:35:29;6.10;;;5.18;;
59105;SDS011;44891;50.204;8.132;2022-10-16T07:39:31;6.63;;;5.53;;
59105;SDS011;44891;50.204;8.132;2022-10-16T07:43:34;5.53;;;4.90;;
59105;SDS011;44891;50.204;8.132;2022-10-16T07:47:36;6.63;;;4.85;;
59105;SDS011;44891;50.204;8.132;2022-10-16T07:51:39;5.90;;;5.25;;
59105;SDS011;44891;50.204;8.132;2022-10-16T07:55:41;7.60;;;5.30;;
59105;SDS011;44891;50.204;8.132;2022-10-16T07:59:44;8.02;;;6.50;;
59105;SDS011;44891;50.204;8.132;2022-10-16T08:03:47;7.20;;;5.72;;
59105;SDS011;44891;50.204;8.132;2022-10-16T08:07:51;7.00;;;6.28;;
59105;SDS011;44891;50.204;8.132;2022-10-16T08:11:53;14.43;;;12.18;;
59105;SDS011;44891;50.204;8.132;2022-10-16T08:15:57;14.13;;;11.23;;
59105;SDS011;44891;50.204;8.132;2022-10-16T08:19:59;20.60;;;15.45;;
59105;SDS011;44891;50.204;8.132;2022-10-16T08:24:01;29.00;;;20.42;;
59105;SDS011;44891;50.204;8.132;2022-10-16T08:28:03;31.95;;;22.58;;
59105;SDS011;44891;50.204;8.132;2022-10-16T08:32:08;26.60;;;21.15;;
59105;SDS011;44891;50.204;8.132;2022-10-16T08:36:11;25.35;;;19.35;;
59105;SDS011;44891;50.204;8.132;2022-10-16T08:40:16;20.92;;;16.20;;
59105;SDS011;44891;50.204;8.132;2022-10-16T08:44:27;29.17;;;21.00;;
59105;SDS011;44891;50.204;8.132;2022-10-16T08:48:42;30.05;;;21.40;;
59105;SDS011;44891;50.204;8.132;2022-10-16T08:52:47;28.80;;;18.80;;
59105;SDS011;44891;50.204;8.132;2022-10-16T08:56:49;17.83;;;12.45;;
59105;SDS011;44891;50.204;8.132;2022-10-16T09:00:53;12.93;;;8.95;;
59105;SDS011;44891;50.204;8.132;2022-10-16T09:05:00;4.38;;;3.70;;
59105;SDS011;44891;50.204;8.132;2022-10-16T09:09:22;8.00;;;3.92;;
59105;SDS011;44891;50.204;8.132;2022-10-16T09:13:40;1.80;;;1.70;;
59105;SDS011;44891;50.204;8.132;2022-10-16T09:17:52;2.10;;;1.70;;
59105;SDS011;44891;50.204;8.132;2022-10-16T09:22:01;1.80;;;1.45;;
59105;SDS011;44891;50.204;8.132;2022-10-16T09:26:12;1.70;;;1.60;;
59105;SDS011;44891;50.204;8.132;2022-10-16T09:30:17;3.30;;;1.65;;
59105;SDS011;44891;50.204;8.132;2022-10-16T09:34:23;2.33;;;1.52;;
59105;SDS011;44891;50.204;8.132;2022-10-16T09:38:32;2.85;;;1.80;;
59105;SDS011;44891;50.204;8.132;2022-10-16T09:42:36;2.60;;;2.40;;
59105;SDS011;44891;50.204;8.132;2022-10-16T09:46:39;2.70;;;2.47;;
59105;SDS011;44891;50.204;8.132;2022-10-16T09:50:41;3.13;;;2.60;;
59105;SDS011;44891;50.204;8.132;2022-10-16T09:54:49;3.00;;;1.77;;
59105;SDS011;44891;50.204;8.132;2022-10-16T09:58:53;3.05;;;1.65;;
59105;SDS011;44891;50.204;8.132;2022-10-16T10:02:56;2.95;;;1.50;;
59105;SDS011;44891;50.204;8.132;2022-10-16T10:06:59;2.40;;;1.77;;
59105;SDS011;44891;50.204;8.132;2022-10-16T10:11:03;4.30;;;1.70;;
59105;SDS011;44891;50.204;8.132;2022-10-16T10:15:06;3.40;;;1.80;;
59105;SDS011;44891;50.204;8.132;2022-10-16T10:19:16;2.17;;;1.80;;
59105;SDS011;44891;50.204;8.132;2022-10-16T10:23:20;2.15;;;1.98;;
59105;SDS011;44891;50.204;8.132;2022-10-16T10:27:27;1.95;;;1.60;;
59105;SDS011;44891;50.204;8.132;2022-10-16T10:31:38;2.15;;;1.80;;
59105;SDS011;44891;50.204;8.132;2022-10-16T10:35:49;2.38;;;1.27;;
59105;SDS011;44891;50.204;8.132;2022-10-16T10:39:59;2.42;;;1.42;;
59105;SDS011;44891;50.204;8.132;2022-10-16T10:44:16;2.15;;;1.13;;
59105;SDS011;44891;50.204;8.132;2022-10-16T10:48:34;2.97;;;0.90;;
59105;SDS011;44891;50.204;8.132;2022-10-16T10:52:52;1.38;;;1.20;;
59105;SDS011;44891;50.204;8.132;2022-10-16T10:57:02;1.58;;;0.98;;
59105;SDS011;44891;50.204;8.132;2022-10-16T11:01:12;1.67;;;0.93;;
59105;SDS011;44891;50.204;8.132;2022-10-16T11:05:31;1.75;;;1.20;;
59105;SDS011;44891;50.204;8.132;2022-10-16T11:09:42;2.10;;;1.17;;
59105;SDS011;44891;50.204;8.132;2022-10-16T11:13:51;1.90;;;1.30;;
59105;SDS011;44891;50.204;8.132;2022-10-16T11:17:59;2.17;;;1.30;;
59105;SDS011;44891;50.204;8.132;2022-10-16T11:22:08;1.67;;;1.13;;
59105;SDS011;44891;50.204;8.132;2022-10-16T11:26:16;3.22;;;1.42;;
59105;SDS011;44891;50.204;8.132;2022-10-16T11:30:21;2.58;;;1.40;;
59105;SDS011;44891;50.204;8.132;2022-10-16T11:34:28;1.30;;;1.20;;
59105;SDS011;44891;50.204;8.132;2022-10-16T11:38:38;1.42;;;1.33;;
59105;SDS011;44891;50.204;8.132;2022-10-16T11:42:46;1.70;;;1.48;;
59105;SDS011;44891;50.204;8.132;2022-10-16T11:46:57;1.55;;;1.40;;
59105;SDS011;44891;50.204;8.132;2022-10-16T11:51:07;2.85;;;1.98;;
59105;SDS011;44891;50.204;8.132;2022-10-16T11:55:17;1.98;;;1.73;;
59105;SDS011;44891;50.204;8.132;2022-10-16T11:59:22;3.38;;;2.45;;
59105;SDS011;44891;50.204;8.132;2022-10-16T12:03:31;3.85;;;3.17;;
59105;SDS011;44891;50.204;8.132;2022-10-16T12:07:39;3.30;;;3.00;;
59105;SDS011;44891;50.204;8.132;2022-10-16T12:11:48;4.63;;;3.72;;
59105;SDS011;44891;50.204;8.132;2022-10-16T12:15:50;4.05;;;3.75;;
59105;SDS011;44891;50.204;8.132;2022-10-16T12:19:59;7.03;;;3.80;;
59105;SDS011;44891;50.204;8.132;2022-10-16T12:24:05;5.03;;;3.70;;
59105;SDS011;44891;50.204;8.132;2022-10-16T12:28:17;4.03;;;3.63;;
59105;SDS011;44891;50.204;8.132;2022-10-16T12:32:24;5.88;;;3.67;;
59105;SDS011;44891;50.204;8.132;2022-10-16T12:36:31;5.50;;;3.35;;
59105;SDS011;44891;50.204;8.132;2022-10-16T12:40:36;3.67;;;3.28;;
59105;SDS011;44891;50.204;8.132;2022-10-16T12:44:39;3.30;;;3.00;;
59105;SDS011;44891;50.204;8.132;2022-10-16T12:48:42;3.30;;;2.80;;
59105;SDS011;44891;50.204;8.132;2022-10-16T12:52:47;3.97;;;3.20;;
59105;SDS011;44891;50.204;8.132;2022-10-16T12:56:55;3.33;;;2.55;;
59105;SDS011;44891;50.204;8.132;2022-10-16T13:01:07;2.50;;;2.30;;
59105;SDS011;44891;50.204;8.132;2022-10-16T13:05:22;2.42;;;2.22;;
59105;SDS011;44891;50.204;8.132;2022-10-16T13:09:33;4.13;;;2.15;;
59105;SDS011;44891;50.204;8.132;2022-10-16T13:13:51;2.30;;;2.10;;
59105;SDS011;44891;50.204;8.132;2022-10-16T13:18:05;1.98;;;1.73;;
59105;SDS011;44891;50.204;8.132;2022-10-16T13:22:17;2.35;;;2.10;;
59105;SDS011;44891;50.204;8.132;2022-10-16T13:26:29;2.35;;;2.15;;
59105;SDS011;44891;50.204;8.132;2022-10-16T13:30:41;3.70;;;2.30;;
59105;SDS011;44891;50.204;8.132;2022-10-16T13:34:45;3.78;;;2.47;;
59105;SDS011;44891;50.204;8.132;2022-10-16T13:38:57;2.20;;;2.00;;
59105;SDS011;44891;50.204;8.132;2022-10-16T13:43:02;2.25;;;1.98;;
59105;SDS011;44891;50.204;8.132;2022-10-16T13:47:05;2.92;;;2.00;;
59105;SDS011;44891;50.204;8.132;2022-10-16T13:51:16;3.47;;;2.50;;
59105;SDS011;44891;50.204;8.132;2022-10-16T13:55:20;2.42;;;2.10;;
59105;SDS011;44891;50.204;8.132;2022-10-16T13:59:23;3.58;;;2.47;;
59105;SDS011;44891;50.204;8.132;2022-10-16T14:03:28;2.60;;;2.40;;
59105;SDS011;44891;50.204;8.132;2022-10-16T14:07:32;2.58;;;2.30;;
59105;SDS011;44891;50.204;8.132;2022-10-16T14:11:37;5.43;;;2.10;;
59105;SDS011;44891;50.204;8.132;2022-10-16T14:15:46;2.60;;;2.40;;
59105;SDS011;44891;50.204;8.132;2022-10-16T14:19:53;2.40;;;2.20;;
59105;SDS011;44891;50.204;8.132;2022-10-16T14:23:57;2.95;;;2.45;;
59105;SDS011;44891;50.204;8.132;2022-10-16T14:28:00;4.05;;;2.60;;
59105;SDS011;44891;50.204;8.132;2022-10-16T14:32:05;2.90;;;2.50;;
59105;SDS011;44891;50.204;8.132;2022-10-16T14:36:12;3.08;;;2.78;;
59105;SDS011;44891;50.204;8.132;2022-10-16T14:40:17;3.97;;;2.70;;
59105;SDS011;44891;50.204;8.132;2022-10-16T14:44:20;3.47;;;2.88;;
59105;SDS011;44891;50.204;8.132;2022-10-16T14:48:28;3.00;;;2.72;;
59105;SDS011;44891;50.204;8.132;2022-10-16T14:52:32;3.10;;;2.80;;
59105;SDS011;44891;50.204;8.132;2022-10-16T14:56:35;3.40;;;2.90;;
59105;SDS011;44891;50.204;8.132;2022-10-16T15:00:47;3.00;;;2.70;;
59105;SDS011;44891;50.204;8.132;2022-10-16T15:04:49;4.57;;;2.90;;
59105;SDS011;44891;50.204;8.132;2022-10-16T15:08:53;4.07;;;3.30;;
59105;SDS011;44891;50.204;8.132;2022-10-16T15:12:55;4.13;;;3.10;;
59105;SDS011;44891;50.204;8.132;2022-10-16T15:16:57;3.80;;;3.50;;
59105;SDS011;44891;50.204;8.132;2022-10-16T15:20:59;6.35;;;4.00;;
59105;SDS011;44891;50.204;8.132;2022-10-16T15:25:04;4.90;;;3.90;;
59105;SDS011;44891;50.204;8.132;2022-10-16T15:29:21;11.43;;;7.30;;
59105;SDS011;44891;50.204;8.132;2022-10-16T15:33:24;5.20;;;4.60;;
59105;SDS011;44891;50.204;8.132;2022-10-16T15:37:33;7.78;;;6.95;;
59105;SDS011;44891;50.204;8.132;2022-10-16T15:41:36;5.45;;;4.60;;
59105;SDS011;44891;50.204;8.132;2022-10-16T15:45:39;5.75;;;4.35;;
59105;SDS011;44891;50.204;8.132;2022-10-16T15:49:41;5.40;;;4.32;;
59105;SDS011;44891;50.204;8.132;2022-10-16T15:53:43;7.55;;;4.47;;
59105;SDS011;44891;50.204;8.132;2022-10-16T15:57:48;4.63;;;4.20;;
59105;SDS011;44891;50.204;8.132;2022-10-16T16:01:50;6.40;;;4.85;;
59105;SDS011;44891;50.204;8.132;2022-10-16T16:05:53;8.15;;;5.00;;
59105;SDS011;44891;50.204;8.132;2022-10-16T16:09:55;7.28;;;4.75;;
59105;SDS011;44891;50.204;8.132;2022-10-16T16:13:58;8.13;;;5.20;;
59105;SDS011;44891;50.204;8.132;2022-10-16T16:18:00;8.65;;;5.50;;
59105;SDS011;44891;50.204;8.132;2022-10-16T16:22:06;9.13;;;5.55;;
59105;SDS011;44891;50.204;8.132;2022-10-16T16:26:09;6.68;;;4.70;;
59105;SDS011;44891;50.204;8.132;2022-10-16T16:30:15;6.85;;;4.70;;
59105;SDS011;44891;50.204;8.132;2022-10-16T16:34:19;6.15;;;5.03;;
59105;SDS011;44891;50.204;8.132;2022-10-16T16:38:21;6.68;;;5.10;;
59105;SDS011;44891;50.204;8.132;2022-10-16T16:42:24;5.50;;;4.95;;
59105;SDS011;44891;50.204;8.132;2022-10-16T16:46:28;7.03;;;5.40;;
59105;SDS011;44891;50.204;8.132;2022-10-16T16:50:31;5.80;;;4.93;;
59105;SDS011;44891;50.204;8.132;2022-10-16T16:54:37;8.02;;;5.70;;
59105;SDS011;44891;50.204;8.132;2022-10-16T16:58:39;7.75;;;5.70;;
59105;SDS011;44891;50.204;8.132;2022-10-16T17:02:42;9.60;;;6.13;;
59105;SDS011;44891;50.204;8.132;2022-10-16T17:06:45;6.38;;;5.68;;
59105;SDS011;44891;50.204;8.132;2022-10-16T17:10:47;7.03;;;5.30;;
59105;SDS011;44891;50.204;8.132;2022-10-16T17:14:53;7.68;;;6.40;;
59105;SDS011;44891;50.204;8.132;2022-10-16T17:18:58;7.97;;;6.55;;
59105;SDS011;44891;50.204;8.132;2022-10-16T17:23:00;9.25;;;6.03;;
59105;SDS011;44891;50.204;8.132;2022-10-16T17:27:02;6.70;;;5.43;;
59105;SDS011;44891;50.204;8.132;2022-10-16T17:31:08;7.43;;;6.20;;
59105;SDS011;44891;50.204;8.132;2022-10-16T17:35:13;10.38;;;7.13;;
59105;SDS011;44891;50.204;8.132;2022-10-16T17:39:16;9.75;;;7.78;;
59105;SDS011;44891;50.204;8.132;2022-10-16T17:43:19;9.98;;;8.13;;
59105;SDS011;44891;50.204;8.132;2022-10-16T17:47:21;12.00;;;8.25;;
59105;SDS011;44891;50.204;8.132;2022-10-16T17:51:25;11.70;;;9.40;;
59105;SDS011;44891;50.204;8.132;2022-10-16T17:55:29;11.23;;;8.23;;
59105;SDS011;44891;50.204;8.132;2022-10-16T17:59:31;12.88;;;9.23;;
59105;SDS011;44891;50.204;8.132;2022-10-16T18:03:33;14.70;;;11.15;;
59105;SDS011;44891;50.204;8.132;2022-10-16T18:07:37;15.65;;;10.13;;
59105;SDS011;44891;50.204;8.132;2022-10-16T18:11:39;18.15;;;12.13;;
59105;SDS011;44891;50.204;8.132;2022-10-16T18:15:41;18.15;;;11.32;;
59105;SDS011;44891;50.204;8.132;2022-10-16T18:19:44;15.57;;;11.93;;
59105;SDS011;44891;50.204;8.132;2022-10-16T18:23:48;13.38;;;10.20;;
59105;SDS011;44891;50.204;8.132;2022-10-16T18:27:50;20.38;;;15.00;;
59105;SDS011;44891;50.204;8.132;2022-10-16T18:31:52;24.65;;;19.40;;
59105;SDS011;44891;50.204;8.132;2022-10-16T18:35:55;24.58;;;17.70;;
59105;SDS011;44891;50.204;8.132;2022-10-16T18:40:02;29.55;;;18.30;;
59105;SDS011;44891;50.204;8.132;2022-10-16T18:44:05;26.65;;;19.05;;
59105;SDS011;44891;50.204;8.132;2022-10-16T18:48:10;25.55;;;18.25;;
59105;SDS011;44891;50.204;8.132;2022-10-16T18:52:12;22.95;;;16.67;;
59105;SDS011;44891;50.204;8.132;2022-10-16T18:56:16;21.77;;;14.63;;
59105;SDS011;44891;50.204;8.132;2022-10-16T19:00:19;18.17;;;13.30;;
59105;SDS011;44891;50.204;8.132;2022-10-16T19:04:21;14.77;;;10.52;;
59105;SDS011;44891;50.204;8.132;2022-10-16T19:08:23;14.25;;;10.55;;
59105;SDS011;44891;50.204;8.132;2022-10-16T19:12:27;15.43;;;10.80;;
59105;SDS011;44891;50.204;8.132;2022-10-16T19:16:30;13.38;;;9.80;;
59105;SDS011;44891;50.204;8.132;2022-10-16T19:20:34;10.05;;;8.00;;
59105;SDS011;44891;50.204;8.132;2022-10-16T19:24:36;10.65;;;8.02;;
59105;SDS011;44891;50.204;8.132;2022-10-16T19:28:40;12.32;;;7.78;;
59105;SDS011;44891;50.204;8.132;2022-10-16T19:32:42;11.15;;;8.98;;
59105;SDS011;44891;50.204;8.132;2022-10-16T19:36:45;10.30;;;7.55;;
59105;SDS011;44891;50.204;8.132;2022-10-16T19:40:49;10.50;;;7.63;;
59105;SDS011;44891;50.204;8.132;2022-10-16T19:44:52;10.50;;;7.43;;
59105;SDS011;44891;50.204;8.132;2022-10-16T19:48:55;9.45;;;7.40;;
59105;SDS011;44891;50.204;8.132;2022-10-16T19:52:58;10.48;;;6.90;;
59105;SDS011;44891;50.204;8.132;2022-10-16T19:57:00;9.05;;;7.85;;
59105;SDS011;44891;50.204;8.132;2022-10-16T20:01:04;11.00;;;8.15;;
59105;SDS011;44891;50.204;8.132;2022-10-16T20:05:07;15.30;;;13.40;;
59105;SDS011;44891;50.204;8.132;2022-10-16T20:09:09;13.55;;;10.68;;
59105;SDS011;44891;50.204;8.132;2022-10-16T20:13:11;13.40;;;9.65;;
59105;SDS011;44891;50.204;8.132;2022-10-16T20:17:15;10.90;;;7.80;;
59105;SDS011;44891;50.204;8.132;2022-10-16T20:21:17;12.48;;;8.68;;
59105;SDS011;44891;50.204;8.132;2022-10-16T20:25:20;11.73;;;8.80;;
59105;SDS011;44891;50.204;8.132;2022-10-16T20:29:22;12.50;;;8.00;;
59105;SDS011;44891;50.204;8.132;2022-10-16T20:33:26;10.48;;;7.43;;
59105;SDS011;44891;50.204;8.132;2022-10-16T20:37:28;9.52;;;7.93;;
59105;SDS011;44891;50.204;8.132;2022-10-16T20:41:30;14.10;;;9.80;;
59105;SDS011;44891;50.204;8.132;2022-10-16T20:45:32;12.10;;;8.77;;
59105;SDS011;44891;50.204;8.132;2022-10-16T20:49:36;11.98;;;8.77;;
59105;SDS011;44891;50.204;8.132;2022-10-16T20:53:38;9.88;;;6.57;;
59105;SDS011;44891;50.204;8.132;2022-10-16T20:57:40;12.57;;;7.35;;
59105;SDS011;44891;50.204;8.132;2022-10-16T21:01:42;8.38;;;6.53;;
59105;SDS011;44891;50.204;8.132;2022-10-16T21:05:46;10.98;;;6.78;;
59105;SDS011;44891;50.204;8.132;2022-10-16T21:09:48;10.30;;;6.38;;
59105;SDS011;44891;50.204;8.132;2022-10-16T21:13:51;8.88;;;6.88;;
59105;SDS011;44891;50.204;8.132;2022-10-16T21:17:54;9.38;;;6.88;;
59105;SDS011;44891;50.204;8.132;2022-10-16T21:21:57;9.70;;;6.88;;
59105;SDS011;44891;50.204;8.132;2022-10-16T21:25:59;8.05;;;6.20;;
59105;SDS011;44891;50.204;8.132;2022-10-16T21:30:02;8.00;;;6.15;;
59105;SDS011;44891;50.204;8.132;2022-10-16T21:34:04;8.13;;;5.93;;
59105;SDS011;44891;50.204;8.132;2022-10-16T21:38:08;9.48;;;6.63;;
59105;SDS011;44891;50.204;8.132;2022-10-16T21:42:10;9.02;;;6.47;;
59105;SDS011;44891;50.204;8.132;2022-10-16T21:46:12;10.23;;;6.22;;
59105;SDS011;44891;50.204;8.132;2022-10-16T21:50:17;12.65;;;6.75;;
59105;SDS011;44891;50.204;8.132;2022-10-16T21:54:21;11.57;;;6.38;;
59105;SDS011;44891;50.204;8.132;2022-10-16T21:58:24;7.35;;;5.95;;
59105;SDS011;44891;50.204;8.132;2022-10-16T22:02:27;9.82;;;6.40;;
59105;SDS011;44891;50.204;8.132;2022-10-16T22:06:29;7.32;;;5.50;;
59105;SDS011;44891;50.204;8.132;2022-10-16T22:10:32;11.00;;;6.22;;
59105;SDS011;44891;50.204;8.132;2022-10-16T22:14:34;8.45;;;5.57;;
59105;SDS011;44891;50.204;8.132;2022-10-16T22:18:37;9.18;;;5.90;;
59105;SDS011;44891;50.204;8.132;2022-10-16T22:22:40;8.50;;;5.65;;
59105;SDS011;44891;50.204;8.132;2022-10-16T22:26:43;6.32;;;5.10;;
59105;SDS011;44891;50.204;8.132;2022-10-16T22:30:46;8.15;;;5.57;;
59105;SDS011;44891;50.204;8.132;2022-10-16T22:34:48;8.77;;;5.53;;
59105;SDS011;44891;50.204;8.132;2022-10-16T22:38:50;7.40;;;5.25;;
59105;SDS011;44891;50.204;8.132;2022-10-16T22:42:55;7.40;;;5.00;;
59105;SDS011;44891;50.204;8.132;2022-10-16T22:46:58;5.78;;;5.18;;
59105;SDS011;44891;50.204;8.132;2022-10-16T22:51:00;7.10;;;5.22;;
59105;SDS011;44891;50.204;8.132;2022-10-16T22:55:03;7.10;;;5.97;;
59105;SDS011;44891;50.204;8.132;2022-10-16T22:59:07;7.32;;;5.68;;
59105;SDS011;44891;50.204;8.132;2022-10-16T23:03:10;9.10;;;5.80;;
59105;SDS011;44891;50.204;8.132;2022-10-16T23:07:12;8.40;;;5.90;;
59105;SDS011;44891;50.204;8.132;2022-10-16T23:11:14;8.75;;;5.82;;
59105;SDS011;44891;50.204;8.132;2022-10-16T23:15:18;9.98;;;6.43;;
59105;SDS011;44891;50.204;8.132;2022-10-16T23:19:20;8.70;;;6.03;;
59105;SDS011;44891;50.204;8.132;2022-10-16T23:23:22;7.72;;;6.03;;
59105;SDS011;44891;50.204;8.132;2022-10-16T23:27:24;8.43;;;5.97;;
59105;SDS011;44891;50.204;8.132;2022-10-16T23:31:28;9.18;;;5.93;;
59105;SDS011;44891;50.204;8.132;2022-10-16T23:35:30;10.63;;;6.30;;
59105;SDS011;44891;50.204;8.132;2022-10-16T23:39:32;9.15;;;6.20;;
59105;SDS011;44891;50.204;8.132;2022-10-16T23:43:34;10.95;;;5.82;;
59105;SDS011;44891;50.204;8.132;2022-10-16T23:47:38;7.97;;;5.53;;
59105;SDS011;44891;50.204;8.132;2022-10-16T23:51:41;8.82;;;5.78;;
59105;SDS011;44891;50.204;8.132;2022-10-16T23:55:43;9.30;;;6.30;;
59105;SDS011;44891;50.204;8.132;2022-10-16T23:59:45;11.82;;;6.30;;
